Friday, March 27, 2015
08:13 UTC
  |  Log In   |  Register Free
Airport Search:

New River Valley Airport
(KPSK)

New River Valley Airport Diagram
No Airport Diagram Available

FAA data valid effective March 05, 2015 - April 30, 2015 (unless otherwise noted).

 
 
 
 
 
 
 
 
 
 
 
 
 
 

Current Aviation Weather for New River Valley Airport (KPSK)

The most recent METAR observation for KPSK was updated at: 1412
METAR Summary (Translated METAR)
KPSK
251355Z AUTO 11005KT 10SM OVC012 07/03 A3028 RMK AO2 T00720034
KBCB
251355Z AUTO 12007KT 10SM OVC014 05/00 A3030 RMK AO2 T00500000
(13.6 nm NE from KPSK)
KHLX
251355Z AUTO 15003KT 1 3/4SM BR OVC002 06/05 A3026 RMK AO2 T00550051
(23.4 nm SW from KPSK)
TAF Summary (Translated TAF)
KBCB
(13.6 nm NE from KPSK)
251129Z 2512/2612 10007KT P6SM OVC018 FM251600 14005KT P6SM OVC012 FM260100 12003KT P6SM OVC008 FM260700 00000KT 2SM BR OVC004
  Airport Weather Conditions for KPSK

 Current Weather at PSK
42° F
Light Rain
Northwest winds at 5.8 mph
PSK NOAA Radar

Pressure: 29.83 in
Humidity: 88%
Wind: Northwest at 5.8 MPH (5 KT)
Dew Point: 38.7°F
Visibility: 7.00 mi


Airport Weather Forecast for KPSK

Translated METAR and TAF for KPSK
Translated METAR for KPSK (0813 UTC 27 March 2015)
found at http://aviationweather.gov/adds/metars/
 
METAR text: KPSK 270755Z AUTO 32005KT 10SM RA OVC018 05/03 A2981 RMK AO2 T00510033
Conditions at: KPSK (DUBLIN/NEW RIV , VA, US) observed 0755 UTC 27 March 2015
Temperature: 5.1°C (41°F)
Dewpoint: 3.3°C (38°F) [RH = 88%]
Pressure (altimeter): 29.81 inches Hg (1009.6 mb)
Winds: from the NW (320 degrees) at 6 MPH (5 knots; 2.6 m/s)
Visibility: 10 or more miles (16+ km)
Ceiling: 1800 feet AGL
Clouds: overcast cloud deck at 1800 feet AGL
Weather: RA  (rain)
Translated TAF for KPSK

There is no translated TAF available for this airport

Find All Airport Services Find A Hotel Find A Rental Car Find A Golf Course Find A Restaurant $100 Hamburger



FBO's on the Field
FBO Company Facility Photos Services Transportation Aviation Fuel Prices: Prices include tax
Catering Weather Repair Courtesy Rental Type 100LL JetA JetA+ MOGAS 8087
 
New River Valley Airport

This FBO has not yet been rated
FS:Avfuel
Last Updated: Mar-24
Login to update fuel prices
SS:
Contact New River Valley AirportMore FBO Information
 
Add another FBO Facility Photos Catering Weather Repair Courtesy Rental Type 100LL JetA JetA+ MOGAS 8087
Services Transportation Aviation Fuel Prices: Prices include tax


model-print
model-print
model-print
model-print